createdAt,value
2018-04-27T00:00:20.633Z,101445.66
2018-04-27T00:01:24.785Z,101444.33
2018-04-27T00:02:28.919Z,101452.75
2018-04-27T00:03:33.106Z,101449.63
2018-04-27T00:04:37.258Z,101449.17
2018-04-27T00:05:41.527Z,101455.80
2018-04-27T00:06:46.825Z,101454.45
2018-04-27T00:07:51.064Z,101448.72
2018-04-27T00:08:55.197Z,101451.34
2018-04-27T00:09:59.521Z,101442.53
2018-04-27T00:11:03.719Z,101448.27
2018-04-27T00:12:07.847Z,101444.31
2018-04-27T00:13:13.318Z,101445.20
2018-04-27T00:14:17.432Z,101446.52
2018-04-27T00:15:21.849Z,101445.22
2018-04-27T00:16:26.040Z,101441.70
2018-04-27T00:17:30.149Z,101443.48
2018-04-27T00:18:34.361Z,101440.37
2018-04-27T00:19:38.523Z,101446.98
2018-04-27T00:20:42.751Z,101438.16
2018-04-27T00:21:47.809Z,101441.23
2018-04-27T00:22:52.018Z,101435.02
2018-04-27T00:23:56.871Z,101439.86
2018-04-27T00:25:01.096Z,101433.68
2018-04-27T00:26:05.642Z,101435.02
2018-04-27T00:27:09.786Z,101433.67
2018-04-27T00:28:13.982Z,101432.80
2018-04-27T00:29:18.112Z,101437.23
2018-04-27T00:30:22.790Z,101436.34
2018-04-27T00:31:26.920Z,101437.20
2018-04-27T00:32:31.262Z,101430.61
2018-04-27T00:33:35.534Z,101441.20
2018-04-27T00:34:39.784Z,101431.50
2018-04-27T00:35:43.940Z,101438.61
2018-04-27T00:36:48.360Z,101434.64
2018-04-27T00:37:52.604Z,101431.99
2018-04-27T00:38:57.838Z,101435.50
2018-04-27T00:40:02.009Z,101437.27
2018-04-27T00:41:06.157Z,101432.41
2018-04-27T00:42:10.311Z,101436.38
2018-04-27T00:43:14.743Z,101435.08
2018-04-27T00:44:18.961Z,101434.19
2018-04-27T00:45:23.298Z,101431.56
2018-04-27T00:46:27.419Z,101428.90
2018-04-27T00:47:31.746Z,101430.66
2018-04-27T00:48:35.875Z,101432.88
2018-04-27T00:49:40.329Z,101425.81
2018-04-27T00:50:44.444Z,101429.34
2018-04-27T00:51:48.648Z,101423.59
2018-04-27T00:53:01.453Z,101420.97
2018-04-27T00:54:05.608Z,101422.75
2018-04-27T00:55:09.834Z,101421.00
2018-04-27T00:56:14.019Z,101426.30
2018-04-27T00:57:18.147Z,101426.29
2018-04-27T00:58:22.369Z,101424.09
2018-04-27T00:59:26.525Z,101423.64
2018-04-27T01:00:31.005Z,101420.09
2018-04-27T01:01:35.132Z,101421.88
2018-04-27T01:02:39.576Z,101413.92
2018-04-27T01:03:43.853Z,101416.58
2018-04-27T01:04:48.033Z,101417.48
2018-04-27T01:05:52.177Z,101419.67
2018-04-27T01:06:57.166Z,101419.23
2018-04-27T01:08:01.302Z,101420.13
2018-04-27T01:09:06.796Z,101417.92
2018-04-27T01:10:11.062Z,101419.23
2018-04-27T01:11:15.179Z,101414.83
2018-04-27T01:12:19.312Z,101417.05
2018-04-27T01:13:23.557Z,101415.28
2018-04-27T01:14:29.710Z,101414.84
2018-04-27T01:15:34.660Z,101421.02
2018-04-27T01:16:39.300Z,101419.23
2018-04-27T01:17:43.550Z,101412.61
2018-04-27T01:18:47.690Z,101410.40
2018-04-27T01:19:52.594Z,101408.20
2018-04-27T01:20:56.720Z,101413.05
2018-04-27T01:22:01.150Z,101413.92
2018-04-27T01:23:05.610Z,101409.96
2018-04-27T01:24:10.395Z,101412.17
2018-04-27T01:25:14.782Z,101410.41
2018-04-27T01:26:18.920Z,101406.84
2018-04-27T01:27:23.034Z,101411.69
2018-04-27T01:28:27.349Z,101413.47
2018-04-27T01:29:31.456Z,101405.53
2018-04-27T01:30:35.882Z,101403.75
2018-04-27T01:31:40.000Z,101410.83
2018-04-27T01:32:44.159Z,101409.95
2018-04-27T01:33:48.297Z,101409.95
2018-04-27T01:34:52.698Z,101413.02
2018-04-27T01:35:56.839Z,101414.80
2018-04-27T01:37:00.958Z,101407.70
2018-04-27T01:38:05.201Z,101411.27
2018-04-27T01:39:09.329Z,101404.16
2018-04-27T01:40:13.506Z,101411.22
2018-04-27T01:41:17.942Z,101403.72
2018-04-27T01:42:22.141Z,101404.59
2018-04-27T01:43:26.268Z,101405.00
2018-04-27T01:44:30.463Z,101403.67
2018-04-27T01:45:34.859Z,101401.89
2018-04-27T01:46:38.974Z,101406.76
2018-04-27T01:47:44.325Z,101398.34
2018-04-27T01:48:48.568Z,101402.80
2018-04-27T01:49:52.700Z,101403.23
2018-04-27T01:50:56.800Z,101404.97
2018-04-27T01:52:00.980Z,101401.45
2018-04-27T01:53:05.192Z,101400.09
2018-04-27T01:54:09.616Z,101399.65
2018-04-27T01:55:13.763Z,101397.91
2018-04-27T01:56:17.874Z,101393.91
2018-04-27T01:57:22.004Z,101393.48
2018-04-27T01:58:26.286Z,101397.89
2018-04-27T01:59:30.403Z,101400.06
2018-04-27T02:00:35.350Z,101392.97
2018-04-27T02:01:39.794Z,101396.95
2018-04-27T02:02:43.930Z,101398.70
2018-04-27T02:03:48.112Z,101396.93
2018-04-27T02:04:53.119Z,101398.23
2018-04-27T02:05:57.618Z,101393.41
2018-04-27T02:07:01.720Z,101391.17
2018-04-27T02:08:06.037Z,101389.00
2018-04-27T02:09:10.191Z,101388.58
2018-04-27T02:10:14.339Z,101386.80
2018-04-27T02:11:18.482Z,101390.72
2018-04-27T02:12:22.928Z,101387.59
2018-04-27T02:13:27.170Z,101385.36
2018-04-27T02:14:31.286Z,101388.86
2018-04-27T02:15:35.712Z,101383.09
2018-04-27T02:16:41.114Z,101386.63
2018-04-27T02:17:46.052Z,101384.86
2018-04-27T02:18:50.280Z,101384.39
2018-04-27T02:19:55.320Z,101390.60
2018-04-27T02:20:59.537Z,101386.60
2018-04-27T02:22:03.660Z,101389.28
2018-04-27T02:23:07.900Z,101388.36
2018-04-27T02:24:12.366Z,101382.63
2018-04-27T02:25:16.526Z,101377.28
2018-04-27T02:26:20.684Z,101381.72
2018-04-27T02:27:24.880Z,101383.90
2018-04-27T02:28:29.033Z,101383.84
2018-04-27T02:29:33.206Z,101386.04
2018-04-27T02:30:38.083Z,101385.53
2018-04-27T02:31:42.253Z,101387.74
2018-04-27T02:32:46.365Z,101387.33
2018-04-27T02:33:50.472Z,101387.33
2018-04-27T02:34:55.279Z,101382.89
2018-04-27T02:35:59.496Z,101378.85
2018-04-27T02:37:03.627Z,101375.39
2018-04-27T02:38:07.827Z,101372.30
2018-04-27T02:39:11.933Z,101367.45
2018-04-27T02:40:16.139Z,101373.97
2018-04-27T02:41:20.271Z,101375.73
2018-04-27T02:42:24.697Z,101380.58
2018-04-27T02:43:28.833Z,101376.58
2018-04-27T02:44:33.029Z,101374.34
2018-04-27T02:45:37.297Z,101380.51
2018-04-27T02:46:42.265Z,101376.95
2018-04-27T02:47:46.489Z,101370.33
2018-04-27T02:48:50.967Z,101377.79
2018-04-27T02:49:55.138Z,101373.34
2018-04-27T02:50:59.258Z,101376.02
2018-04-27T02:52:03.383Z,101373.38
2018-04-27T02:53:07.625Z,101366.44
2018-04-27T02:54:11.759Z,101373.90
2018-04-27T02:55:16.218Z,101369.93
2018-04-27T02:56:20.376Z,101369.85
2018-04-27T02:57:24.625Z,101372.02
2018-04-27T02:58:28.836Z,101373.34
2018-04-27T02:59:33.040Z,101369.34
2018-04-27T03:00:37.562Z,101370.27
2018-04-27T03:01:41.777Z,101370.37
2018-04-27T03:02:45.896Z,101369.48
2018-04-27T03:03:50.596Z,101364.20
2018-04-27T03:04:54.774Z,101361.55
2018-04-27T03:05:59.032Z,101369.86
2018-04-27T03:07:03.154Z,101362.84
2018-04-27T03:08:07.620Z,101363.28
2018-04-27T03:09:11.885Z,101362.36
2018-04-27T03:10:16.010Z,101359.20
2018-04-27T03:11:20.143Z,101367.09
2018-04-27T03:12:24.265Z,101363.09
2018-04-27T03:13:28.767Z,101369.34
2018-04-27T03:14:32.940Z,101371.98
2018-04-27T03:15:37.471Z,101368.50
2018-04-27T03:16:42.719Z,101367.97
2018-04-27T03:17:46.866Z,101366.21
2018-04-27T03:18:51.071Z,101367.97
2018-04-27T03:19:55.545Z,101367.02
2018-04-27T03:20:59.681Z,101367.53
2018-04-27T03:22:03.878Z,101365.73
2018-04-27T03:23:08.008Z,101363.88
2018-04-27T03:24:12.252Z,101366.00
2018-04-27T03:25:16.440Z,101361.19
2018-04-27T03:26:20.872Z,101361.64
2018-04-27T03:27:24.999Z,101362.47
2018-04-27T03:28:29.218Z,101368.59
2018-04-27T03:29:33.341Z,101378.23
2018-04-27T03:30:37.805Z,101369.86
2018-04-27T03:31:42.014Z,101369.91
2018-04-27T03:32:46.499Z,101371.67
2018-04-27T03:33:51.127Z,101365.91
2018-04-27T03:34:56.177Z,101358.91
2018-04-27T03:36:00.407Z,101362.02
2018-04-27T03:37:04.574Z,101358.02
2018-04-27T03:38:08.766Z,101359.30
2018-04-27T03:39:13.182Z,101354.45
2018-04-27T03:40:17.303Z,101363.70
2018-04-27T03:41:21.444Z,101359.78
2018-04-27T03:42:25.649Z,101355.42
2018-04-27T03:43:29.768Z,101361.15
2018-04-27T03:44:33.990Z,101359.83
2018-04-27T03:45:38.429Z,101362.47
2018-04-27T03:46:42.539Z,101364.67
2018-04-27T03:47:46.742Z,101359.88
2018-04-27T03:48:50.897Z,101359.95
2018-04-27T03:49:55.888Z,101363.97
2018-04-27T03:51:00.491Z,101360.44
2018-04-27T03:52:04.601Z,101359.12
2018-04-27T03:53:08.721Z,101354.67
2018-04-27T03:54:12.934Z,101363.48
2018-04-27T03:55:17.045Z,101361.68
2018-04-27T03:56:21.185Z,101361.68
2018-04-27T03:57:25.633Z,101360.75
2018-04-27T03:58:29.855Z,101358.47
2018-04-27T03:59:43.523Z,101356.31
2018-04-27T04:00:58.600Z,101358.15
2018-04-27T04:03:11.161Z,101358.16
2018-04-27T04:05:27.846Z,101359.39
2018-04-27T04:06:32.048Z,101361.44
2018-04-27T04:07:36.165Z,101360.48
2018-04-27T04:08:40.355Z,101356.22
2018-04-27T04:09:45.129Z,101360.36
2018-04-27T04:10:49.535Z,101366.08
2018-04-27T04:11:53.682Z,101360.80
2018-04-27T04:12:57.918Z,101362.60
2018-04-27T04:14:02.037Z,101356.84
2018-04-27T04:15:06.865Z,101369.61
2018-04-27T04:16:11.281Z,101362.12
2018-04-27T04:17:15.794Z,101363.36
2018-04-27T04:18:19.997Z,101366.61
2018-04-27T04:19:24.115Z,101364.05
2018-04-27T04:20:28.283Z,101361.41
2018-04-27T04:21:32.457Z,101362.73
2018-04-27T04:22:37.687Z,101359.16
2018-04-27T04:23:42.181Z,101358.36
2018-04-27T04:24:46.329Z,101356.11
2018-04-27T04:25:50.501Z,101354.83
2018-04-27T04:26:54.681Z,101358.87
2018-04-27T04:27:58.910Z,101356.63
2018-04-27T04:29:03.043Z,101359.23
2018-04-27T04:30:07.583Z,101360.52
2018-04-27T04:31:11.691Z,101359.20
2018-04-27T04:32:15.892Z,101360.05
2018-04-27T04:33:19.995Z,101358.39
2018-04-27T04:34:24.147Z,101349.28
2018-04-27T04:35:28.276Z,101354.16
2018-04-27T04:36:32.711Z,101355.01
2018-04-27T04:37:36.941Z,101357.22
2018-04-27T04:38:41.073Z,101358.57
2018-04-27T04:39:45.213Z,101359.01
2018-04-27T04:40:49.405Z,101355.01
2018-04-27T04:41:53.621Z,101352.91
2018-04-27T04:42:57.721Z,101355.11
2018-04-27T04:44:01.883Z,101360.40
2018-04-27T04:45:07.066Z,101364.37
2018-04-27T04:46:11.484Z,101367.52
2018-04-27T04:47:15.953Z,101365.31
2018-04-27T04:48:20.714Z,101356.96
2018-04-27T04:49:24.982Z,101368.52
2018-04-27T04:50:29.189Z,101371.10
2018-04-27T04:51:33.442Z,101365.40
2018-04-27T04:52:37.696Z,101372.02
2018-04-27T04:53:41.831Z,101366.28
2018-04-27T04:54:46.066Z,101368.61
2018-04-27T04:55:50.217Z,101363.80
2018-04-27T04:56:54.383Z,101368.70
2018-04-27T04:57:58.623Z,101369.13
2018-04-27T04:59:02.751Z,101368.70
2018-04-27T05:00:07.947Z,101376.27
2018-04-27T05:01:12.929Z,101373.61
2018-04-27T05:02:17.167Z,101375.41
2018-04-27T05:03:21.348Z,101380.73
2018-04-27T05:04:25.554Z,101379.37
2018-04-27T05:05:29.757Z,101377.20
2018-04-27T05:06:33.912Z,101375.48
2018-04-27T05:07:38.241Z,101375.94
2018-04-27T05:08:42.358Z,101375.07
2018-04-27T05:09:47.561Z,101378.14
2018-04-27T05:10:53.136Z,101378.14
2018-04-27T05:11:57.295Z,101378.59
2018-04-27T05:13:01.743Z,101374.58
2018-04-27T05:14:05.905Z,101369.76
2018-04-27T05:15:10.072Z,101374.19
2018-04-27T05:16:14.295Z,101367.95
2018-04-27T05:17:18.431Z,101366.16
2018-04-27T05:18:22.810Z,101369.66
2018-04-27T05:19:26.977Z,101366.11
2018-04-27T05:20:29.649Z,101367.91
2018-04-27T05:21:33.798Z,101363.52
2018-04-27T05:22:38.099Z,101365.21
2018-04-27T05:23:42.338Z,101362.98
2018-04-27T05:24:46.945Z,101361.68
2018-04-27T05:25:51.158Z,101359.46
2018-04-27T05:26:55.303Z,101363.03
2018-04-27T05:28:00.337Z,101355.56
2018-04-27T05:29:04.477Z,101358.70
2018-04-27T05:30:08.717Z,101359.11
2018-04-27T05:31:21.523Z,101359.52
2018-04-27T05:32:25.887Z,101354.56
2018-04-27T05:33:30.029Z,101361.17
2018-04-27T05:34:34.245Z,101358.86
2018-04-27T05:35:38.840Z,101361.98
2018-04-27T05:36:42.962Z,101363.41
2018-04-27T05:37:47.214Z,101361.67
2018-04-27T05:38:51.340Z,101368.34
2018-04-27T05:39:55.980Z,101363.92
2018-04-27T05:41:00.140Z,101363.48
2018-04-27T05:42:04.735Z,101359.50
2018-04-27T05:43:08.883Z,101357.25
2018-04-27T05:44:13.018Z,101354.19
2018-04-27T05:45:17.141Z,101355.08
2018-04-27T05:46:21.462Z,101351.04
2018-04-27T05:47:25.612Z,101346.02
2018-04-27T05:48:30.092Z,101353.62
2018-04-27T05:49:34.268Z,101352.63
2018-04-27T05:50:38.679Z,101353.53
2018-04-27T05:51:42.854Z,101361.17
2018-04-27T05:52:47.994Z,101356.30
2018-04-27T05:53:52.192Z,101357.64
2018-04-27T05:54:56.346Z,101352.38
2018-04-27T05:56:00.533Z,101354.10
2018-04-27T05:57:04.666Z,101353.64
2018-04-27T05:58:08.920Z,101347.83
2018-04-27T05:59:13.039Z,101348.69
2018-04-27T06:00:17.822Z,101348.98
2018-04-27T06:01:22.194Z,101345.28
2018-04-27T06:02:26.317Z,101336.88
2018-04-27T06:03:39.234Z,101346.05
2018-04-27T06:04:43.444Z,101342.16
2018-04-27T06:05:47.719Z,101342.16
2018-04-27T06:06:52.149Z,101337.59
2018-04-27T06:07:56.369Z,101341.45
2018-04-27T06:09:00.485Z,101335.31
2018-04-27T06:10:04.611Z,101343.40
2018-04-27T06:11:08.747Z,101341.64
2018-04-27T06:12:13.247Z,101342.83
2018-04-27T06:13:17.371Z,101339.44
2018-04-27T06:14:21.637Z,101339.18
2018-04-27T06:15:25.875Z,101342.70
2018-04-27T06:16:30.084Z,101340.41
2018-04-27T06:17:34.221Z,101335.75
2018-04-27T06:18:38.667Z,101337.60
2018-04-27T06:19:42.862Z,101343.74
2018-04-27T06:20:47.241Z,101337.33
2018-04-27T06:21:51.484Z,101337.03
2018-04-27T06:22:56.413Z,101338.09
2018-04-27T06:24:00.568Z,101337.59
2018-04-27T06:25:06.242Z,101331.76
2018-04-27T06:26:10.496Z,101335.04
2018-04-27T06:27:14.652Z,101334.15
2018-04-27T06:28:18.881Z,101338.25
2018-04-27T06:29:23.039Z,101335.63
2018-04-27T06:30:27.631Z,101336.62
2018-04-27T06:31:31.780Z,101333.98
2018-04-27T06:32:35.916Z,101332.00
2018-04-27T06:33:40.049Z,101331.63
2018-04-27T06:34:44.345Z,101332.53
2018-04-27T06:35:48.492Z,101334.22
2018-04-27T06:36:52.598Z,101337.16
2018-04-27T06:37:58.582Z,101328.80
2018-04-27T06:39:02.812Z,101318.46
2018-04-27T06:40:07.006Z,101328.15
2018-04-27T06:41:11.122Z,101311.59
2018-04-27T06:42:15.272Z,101318.65
2018-04-27T06:43:19.472Z,101321.54
2018-04-27T06:44:24.255Z,101318.84
2018-04-27T06:45:28.724Z,101320.00
2018-04-27T06:46:32.868Z,101318.95
2018-04-27T06:47:36.986Z,101315.34
2018-04-27T06:48:41.192Z,101311.48
2018-04-27T06:49:45.470Z,101319.30
2018-04-27T06:50:49.726Z,101315.89
2018-04-27T06:51:53.994Z,101306.34
2018-04-27T06:52:58.202Z,101320.91
2018-04-27T06:54:02.604Z,101322.03
2018-04-27T06:55:06.855Z,101312.20
2018-04-27T06:56:11.000Z,101322.36
2018-04-27T06:57:15.249Z,101320.54
2018-04-27T06:58:19.459Z,101320.66
2018-04-27T06:59:23.664Z,101327.86
2018-04-27T07:00:28.442Z,101320.02
2018-04-27T07:01:33.032Z,101316.00
2018-04-27T07:02:37.175Z,101321.37
2018-04-27T07:03:41.384Z,101317.98
2018-04-27T07:04:45.683Z,101313.38
2018-04-27T07:05:49.924Z,101312.66
2018-04-27T07:06:54.414Z,101317.37
2018-04-27T07:07:58.646Z,101318.13
2018-04-27T07:09:02.964Z,101312.34
2018-04-27T07:10:08.114Z,101319.27
2018-04-27T07:11:12.240Z,101317.41
2018-04-27T07:12:16.407Z,101318.36
2018-04-27T07:13:20.653Z,101326.07
2018-04-27T07:14:24.794Z,101322.20
2018-04-27T07:15:29.464Z,101319.93
2018-04-27T07:16:33.897Z,101322.50
2018-04-27T07:17:38.097Z,101332.22
2018-04-27T07:18:42.545Z,101324.31
2018-04-27T07:19:46.887Z,101316.66
2018-04-27T07:20:51.101Z,101323.91
2018-04-27T07:21:55.219Z,101329.45
2018-04-27T07:22:59.474Z,101316.47
2018-04-27T07:24:03.680Z,101330.44
2018-04-27T07:25:09.047Z,101321.75
2018-04-27T07:26:14.082Z,101325.72
2018-04-27T07:27:18.259Z,101322.34
2018-04-27T07:28:22.385Z,101326.92
2018-04-27T07:29:26.527Z,101324.14
2018-04-27T07:30:30.967Z,101323.66
2018-04-27T07:31:35.796Z,101327.81
2018-04-27T07:32:39.941Z,101321.43
2018-04-27T07:33:44.152Z,101326.31
2018-04-27T07:34:48.448Z,101316.62
2018-04-27T07:35:52.653Z,101325.55
2018-04-27T07:36:56.778Z,101318.45
2018-04-27T07:38:01.297Z,101315.37
2018-04-27T07:39:06.883Z,101309.96
2018-04-27T07:40:11.095Z,101310.56
2018-04-27T07:41:15.326Z,101320.97
2018-04-27T07:42:19.547Z,101313.64
2018-04-27T07:43:23.750Z,101308.09
2018-04-27T07:44:28.007Z,101313.10
2018-04-27T07:45:32.311Z,101306.52
2018-04-27T07:46:36.538Z,101310.22
2018-04-27T07:47:40.702Z,101304.89
2018-04-27T07:48:44.876Z,101311.44
2018-04-27T07:49:49.296Z,101309.09
2018-04-27T07:50:53.843Z,101299.98
2018-04-27T07:51:58.006Z,101301.20
2018-04-27T07:53:02.141Z,101302.05
2018-04-27T07:54:06.338Z,101300.31
2018-04-27T07:55:10.576Z,101306.95
2018-04-27T07:56:15.018Z,101299.44
2018-04-27T07:57:20.241Z,101294.77
2018-04-27T07:58:24.440Z,101300.01
2018-04-27T07:59:28.582Z,101300.75
2018-04-27T08:00:33.146Z,101302.51
2018-04-27T08:01:37.423Z,101303.69
2018-04-27T08:02:42.352Z,101302.64
2018-04-27T08:03:46.593Z,101308.03
2018-04-27T08:04:51.053Z,101313.42
2018-04-27T08:05:55.193Z,101315.13
2018-04-27T08:06:59.338Z,101313.30
2018-04-27T08:08:03.568Z,101305.92
2018-04-27T08:09:08.171Z,101309.38
2018-04-27T08:10:12.431Z,101307.63
2018-04-27T08:11:17.391Z,101301.72
2018-04-27T08:12:21.651Z,101303.06
2018-04-27T08:13:25.878Z,101305.50
2018-04-27T08:14:30.148Z,101301.03
2018-04-27T08:15:35.102Z,101302.59
2018-04-27T08:16:39.421Z,101300.00
2018-04-27T08:17:43.681Z,101314.45
2018-04-27T08:18:47.989Z,101304.75
2018-04-27T08:19:52.338Z,101309.95
2018-04-27T08:20:56.497Z,101303.73
2018-04-27T08:22:01.080Z,101312.70
2018-04-27T08:23:05.462Z,101310.78
2018-04-27T08:24:09.648Z,101311.90
2018-04-27T08:25:14.230Z,101317.23
2018-04-27T08:26:20.247Z,101304.25
2018-04-27T08:27:24.490Z,101308.21
2018-04-27T08:28:28.780Z,101300.01
2018-04-27T08:29:32.963Z,101310.92
2018-04-27T08:30:37.600Z,101309.77
2018-04-27T08:31:41.888Z,101304.13
2018-04-27T08:32:46.096Z,101311.27
2018-04-27T08:33:50.650Z,101304.00
2018-04-27T08:34:55.039Z,101307.06
2018-04-27T08:35:59.182Z,101297.47
2018-04-27T08:37:03.418Z,101305.77
2018-04-27T08:38:07.533Z,101306.62
2018-04-27T08:39:11.669Z,101299.03
2018-04-27T08:40:15.887Z,101295.73
2018-04-27T08:41:20.798Z,101291.97
2018-04-27T08:42:24.956Z,101290.86
2018-04-27T08:43:29.170Z,101304.73
2018-04-27T08:44:33.420Z,101295.30
2018-04-27T08:45:38.045Z,101295.71
2018-04-27T08:46:42.188Z,101294.48
2018-04-27T08:47:46.421Z,101286.40
2018-04-27T08:48:50.626Z,101296.68
2018-04-27T08:49:54.982Z,101294.15
2018-04-27T08:50:59.418Z,101292.73
2018-04-27T08:52:03.584Z,101295.86
2018-04-27T08:53:08.728Z,101290.21
2018-04-27T08:54:12.954Z,101293.84
2018-04-27T08:55:17.093Z,101293.14
2018-04-27T08:56:21.953Z,101289.42
2018-04-27T08:57:26.100Z,101291.33
2018-04-27T08:58:31.160Z,101288.95
2018-04-27T08:59:35.305Z,101298.43
2018-04-27T09:00:39.856Z,101286.20
2018-04-27T09:01:44.005Z,101288.19
2018-04-27T09:02:48.477Z,101291.30
2018-04-27T09:03:52.849Z,101292.77
2018-04-27T09:04:57.070Z,101289.14
2018-04-27T09:06:01.226Z,101287.86
2018-04-27T09:07:05.438Z,101284.84
2018-04-27T09:08:09.914Z,101275.16
2018-04-27T09:09:14.848Z,101289.73
2018-04-27T09:10:19.105Z,101296.64
2018-04-27T09:11:23.326Z,101296.62
2018-04-27T09:12:27.469Z,101288.21
2018-04-27T09:13:31.596Z,101296.62
2018-04-27T09:14:37.301Z,101292.48
2018-04-27T09:15:41.715Z,101297.06
2018-04-27T09:16:45.929Z,101295.56
2018-04-27T09:17:50.074Z,101289.88
2018-04-27T09:18:54.296Z,101278.19
2018-04-27T09:19:58.671Z,101281.46
2018-04-27T09:21:02.971Z,101281.37
2018-04-27T09:22:07.325Z,101279.33
2018-04-27T09:23:11.494Z,101282.95
2018-04-27T09:24:16.549Z,101286.83
2018-04-27T09:25:20.675Z,101282.52
2018-04-27T09:26:25.121Z,101284.77
2018-04-27T09:27:29.391Z,101281.81
2018-04-27T09:28:33.595Z,101278.69
2018-04-27T09:29:38.263Z,101277.52
2018-04-27T09:30:42.810Z,101275.27
2018-04-27T09:31:46.927Z,101279.64
2018-04-27T09:32:51.521Z,101270.91
2018-04-27T09:33:55.705Z,101268.80
2018-04-27T09:35:00.016Z,101274.91
2018-04-27T09:36:04.288Z,101272.95
2018-04-27T09:37:09.036Z,101265.53
2018-04-27T09:38:13.587Z,101274.52
2018-04-27T09:39:19.040Z,101278.08
2018-04-27T09:40:23.227Z,101277.87
2018-04-27T09:41:27.401Z,101271.88
2018-04-27T09:42:31.605Z,101269.06
2018-04-27T09:43:35.970Z,101275.40
2018-04-27T09:44:41.039Z,101280.87
2018-04-27T09:45:45.376Z,101271.62
2018-04-27T09:46:49.903Z,101275.44
2018-04-27T09:47:54.105Z,101270.87
2018-04-27T09:48:58.394Z,101271.43
2018-04-27T09:50:02.743Z,101273.24
2018-04-27T09:51:07.019Z,101268.22
2018-04-27T09:52:11.315Z,101271.81
2018-04-27T09:53:16.217Z,101265.67
2018-04-27T09:54:20.475Z,101268.73
2018-04-27T09:55:24.614Z,101269.33
2018-04-27T09:56:29.127Z,101269.92
2018-04-27T09:57:33.390Z,101272.02
2018-04-27T09:58:38.342Z,101266.38
2018-04-27T09:59:42.568Z,101267.97
2018-04-27T10:00:46.690Z,101261.73
2018-04-27T10:01:50.856Z,101263.06
2018-04-27T10:02:55.279Z,101255.12
2018-04-27T10:03:59.675Z,101262.69
2018-04-27T10:05:04.149Z,101261.23
2018-04-27T10:06:08.281Z,101262.58
2018-04-27T10:07:12.766Z,101257.89
2018-04-27T10:08:16.969Z,101264.31
2018-04-27T10:09:21.208Z,101271.22
2018-04-27T10:10:25.362Z,101267.28
2018-04-27T10:11:29.547Z,101249.16
2018-04-27T10:12:33.773Z,101261.41
2018-04-27T10:13:39.137Z,101254.62
2018-04-27T10:14:43.261Z,101249.13
2018-04-27T10:15:47.711Z,101260.87
2018-04-27T10:16:51.983Z,101247.34
2018-04-27T10:17:56.131Z,101255.01
2018-04-27T10:19:00.799Z,101258.53
2018-04-27T10:20:05.127Z,101255.62
2018-04-27T10:21:09.656Z,101250.01
2018-04-27T10:22:13.783Z,101247.37
2018-04-27T10:23:18.044Z,101246.78
2018-04-27T10:24:22.254Z,101242.50
2018-04-27T10:25:26.769Z,101235.22
2018-04-27T10:26:31.069Z,101232.22
2018-04-27T10:27:35.265Z,101237.84
2018-04-27T10:28:39.395Z,101240.34
2018-04-27T10:29:43.567Z,101230.69
2018-04-27T10:30:48.014Z,101236.85
2018-04-27T10:31:52.157Z,101232.66
2018-04-27T10:32:56.310Z,101227.64
2018-04-27T10:34:00.438Z,101227.22
2018-04-27T10:35:04.756Z,101220.34
2018-04-27T10:36:09.160Z,101211.30
2018-04-27T10:37:13.663Z,101216.84
2018-04-27T10:38:17.937Z,101216.33
2018-04-27T10:39:23.019Z,101217.68
2018-04-27T10:40:27.275Z,101215.80
2018-04-27T10:41:31.642Z,101218.86
2018-04-27T10:42:36.561Z,101218.59
2018-04-27T10:43:41.027Z,101225.38
2018-04-27T10:44:45.173Z,101223.23
2018-04-27T10:45:49.398Z,101224.95
2018-04-27T10:46:53.855Z,101219.33
2018-04-27T10:47:58.001Z,101223.37
2018-04-27T10:49:02.173Z,101218.50
2018-04-27T10:50:06.730Z,101217.02
2018-04-27T10:51:10.888Z,101215.50
2018-04-27T10:52:15.041Z,101213.42
2018-04-27T10:53:19.327Z,101214.94
2018-04-27T10:54:23.976Z,101204.64
2018-04-27T10:55:28.112Z,101206.84
2018-04-27T10:56:32.552Z,101200.97
2018-04-27T10:57:36.818Z,101206.53
2018-04-27T10:58:40.950Z,101206.16
2018-04-27T10:59:46.003Z,101194.20
2018-04-27T11:00:50.397Z,101196.34
2018-04-27T11:01:54.718Z,101195.08
2018-04-27T11:02:59.171Z,101198.43
2018-04-27T11:04:03.443Z,101195.73
2018-04-27T11:05:07.857Z,101193.52
2018-04-27T11:06:12.103Z,101187.46
2018-04-27T11:07:16.255Z,101177.28
2018-04-27T11:08:20.957Z,101177.89
2018-04-27T11:09:25.437Z,101177.45
2018-04-27T11:10:29.677Z,101182.77
2018-04-27T11:11:33.820Z,101182.09
2018-04-27T11:12:37.988Z,101180.54
2018-04-27T11:13:42.217Z,101182.78
2018-04-27T11:14:46.494Z,101179.69
2018-04-27T11:15:51.214Z,101172.71
2018-04-27T11:16:56.227Z,101162.61
2018-04-27T11:18:00.021Z,101163.58
2018-04-27T11:19:04.260Z,101163.09
2018-04-27T11:20:08.730Z,101172.96
2018-04-27T11:21:12.988Z,101168.13
2018-04-27T11:22:17.209Z,101167.45
2018-04-27T11:23:21.377Z,101160.19
2018-04-27T11:24:26.666Z,101162.81
2018-04-27T11:25:36.076Z,101154.55
2018-04-27T11:26:40.324Z,101170.33
2018-04-27T11:27:45.320Z,101160.78
2018-04-27T11:28:49.810Z,101163.34
2018-04-27T11:29:53.961Z,101158.31
2018-04-27T11:30:58.176Z,101156.23
2018-04-27T11:32:02.423Z,101154.47
2018-04-27T11:33:06.910Z,101153.52
2018-04-27T11:34:11.117Z,101154.66
2018-04-27T11:35:15.615Z,101159.25
2018-04-27T11:36:19.775Z,101164.61
2018-04-27T11:37:24.542Z,101160.05
2018-04-27T11:38:28.782Z,101159.61
2018-04-27T11:39:32.941Z,101162.39
2018-04-27T11:40:37.097Z,101154.10
2018-04-27T11:41:41.557Z,101159.66
2018-04-27T11:42:45.789Z,101158.14
2018-04-27T11:43:49.983Z,101163.77
2018-04-27T11:44:54.117Z,101152.64
2018-04-27T11:45:58.359Z,101157.30
2018-04-27T11:47:02.541Z,101162.70
2018-04-27T11:48:06.855Z,101157.05
2018-04-27T11:49:11.055Z,101155.99
2018-04-27T11:50:15.589Z,101159.73
2018-04-27T11:51:19.875Z,101165.56
2018-04-27T11:52:24.956Z,101161.59
2018-04-27T11:53:29.564Z,101165.89
2018-04-27T11:54:33.958Z,101159.84
2018-04-27T11:55:39.067Z,101158.20
2018-04-27T11:56:43.299Z,101152.71
2018-04-27T11:57:47.609Z,101148.84
2018-04-27T11:58:51.921Z,101147.12
2018-04-27T11:59:56.836Z,101149.33
2018-04-27T12:01:01.423Z,101148.50
2018-04-27T12:02:05.700Z,101154.10
2018-04-27T12:03:09.960Z,101150.21
2018-04-27T12:04:14.276Z,101150.39
2018-04-27T12:05:18.620Z,101149.84
2018-04-27T12:06:23.247Z,101147.17
2018-04-27T12:07:27.468Z,101150.70
2018-04-27T12:08:32.602Z,101146.14
2018-04-27T12:09:36.743Z,101142.80
2018-04-27T12:10:40.903Z,101146.75
2018-04-27T12:11:45.360Z,101141.57
2018-04-27T12:12:49.792Z,101150.58
2018-04-27T12:13:53.978Z,101155.23
2018-04-27T12:14:58.129Z,101153.58
2018-04-27T12:16:02.864Z,101146.84
2018-04-27T12:17:07.094Z,101135.92